sensor_id;sensor_type;location;lat;lon;timestamp;P1;durP1;ratioP1;P2;durP2;ratioP2
52368;SDS011;38298;50.346;3.526;2023-06-14T17:02:51;7.97;;;2.20;;
52368;SDS011;38298;50.346;3.526;2023-06-14T17:05:18;5.10;;;2.35;;
52368;SDS011;38298;50.346;3.526;2023-06-14T17:07:44;4.40;;;2.50;;
52368;SDS011;38298;50.346;3.526;2023-06-14T17:10:10;5.13;;;2.45;;
52368;SDS011;38298;50.346;3.526;2023-06-14T17:12:36;3.70;;;2.13;;
52368;SDS011;38298;50.346;3.526;2023-06-14T17:15:02;4.85;;;2.17;;
52368;SDS011;38298;50.346;3.526;2023-06-14T17:17:28;4.88;;;2.08;;
52368;SDS011;38298;50.346;3.526;2023-06-14T17:19:54;7.28;;;2.50;;
52368;SDS011;38298;50.346;3.526;2023-06-14T17:22:20;8.68;;;2.90;;
52368;SDS011;38298;50.346;3.526;2023-06-14T17:24:46;3.00;;;2.42;;
52368;SDS011;38298;50.346;3.526;2023-06-14T17:27:12;6.93;;;2.55;;
52368;SDS011;38298;50.346;3.526;2023-06-14T17:29:38;5.55;;;2.72;;
52368;SDS011;38298;50.346;3.526;2023-06-14T17:32:04;3.85;;;2.33;;
52368;SDS011;38298;50.346;3.526;2023-06-14T17:34:31;3.88;;;2.13;;
52368;SDS011;38298;50.346;3.526;2023-06-14T17:36:57;7.65;;;3.17;;
52368;SDS011;38298;50.346;3.526;2023-06-14T17:39:23;6.47;;;2.15;;
52368;SDS011;38298;50.346;3.526;2023-06-14T17:41:49;4.82;;;2.28;;
52368;SDS011;38298;50.346;3.526;2023-06-14T17:44:15;4.50;;;2.08;;
52368;SDS011;38298;50.346;3.526;2023-06-14T17:46:41;4.15;;;1.83;;
52368;SDS011;38298;50.346;3.526;2023-06-14T17:49:07;6.75;;;2.10;;
52368;SDS011;38298;50.346;3.526;2023-06-14T17:51:33;5.05;;;2.10;;
52368;SDS011;38298;50.346;3.526;2023-06-14T17:53:59;6.03;;;1.95;;
52368;SDS011;38298;50.346;3.526;2023-06-14T17:56:26;2.00;;;1.80;;
52368;SDS011;38298;50.346;3.526;2023-06-14T17:58:52;9.82;;;2.33;;
52368;SDS011;38298;50.346;3.526;2023-06-14T18:01:20;5.35;;;1.83;;
52368;SDS011;38298;50.346;3.526;2023-06-14T18:03:46;3.92;;;1.98;;
52368;SDS011;38298;50.346;3.526;2023-06-14T18:06:12;2.75;;;1.88;;
52368;SDS011;38298;50.346;3.526;2023-06-14T18:08:38;7.30;;;1.95;;
52368;SDS011;38298;50.346;3.526;2023-06-14T18:11:04;3.58;;;2.00;;
52368;SDS011;38298;50.346;3.526;2023-06-14T18:13:32;5.38;;;2.00;;
52368;SDS011;38298;50.346;3.526;2023-06-14T18:15:58;3.67;;;1.60;;
52368;SDS011;38298;50.346;3.526;2023-06-14T18:18:24;9.10;;;1.80;;
52368;SDS011;38298;50.346;3.526;2023-06-14T18:20:50;4.60;;;1.80;;
52368;SDS011;38298;50.346;3.526;2023-06-14T18:23:16;3.90;;;1.63;;
52368;SDS011;38298;50.346;3.526;2023-06-14T18:25:42;3.28;;;1.48;;
52368;SDS011;38298;50.346;3.526;2023-06-14T18:28:09;3.67;;;1.67;;
52368;SDS011;38298;50.346;3.526;2023-06-14T18:30:35;2.17;;;1.20;;
52368;SDS011;38298;50.346;3.526;2023-06-14T18:33:01;2.80;;;1.30;;
52368;SDS011;38298;50.346;3.526;2023-06-14T18:35:27;3.60;;;1.30;;
52368;SDS011;38298;50.346;3.526;2023-06-14T18:37:53;3.58;;;1.30;;
52368;SDS011;38298;50.346;3.526;2023-06-14T18:40:19;3.95;;;1.30;;
52368;SDS011;38298;50.346;3.526;2023-06-14T18:42:46;3.70;;;1.10;;
52368;SDS011;38298;50.346;3.526;2023-06-14T18:45:12;3.30;;;1.35;;
52368;SDS011;38298;50.346;3.526;2023-06-14T18:47:40;2.00;;;1.15;;
52368;SDS011;38298;50.346;3.526;2023-06-14T18:50:06;2.15;;;1.15;;
52368;SDS011;38298;50.346;3.526;2023-06-14T18:52:32;1.40;;;1.10;;
52368;SDS011;38298;50.346;3.526;2023-06-14T18:54:58;3.53;;;1.58;;
52368;SDS011;38298;50.346;3.526;2023-06-14T18:57:24;3.70;;;1.20;;
52368;SDS011;38298;50.346;3.526;2023-06-14T18:59:50;4.65;;;1.20;;
52368;SDS011;38298;50.346;3.526;2023-06-14T19:02:16;3.33;;;1.10;;
52368;SDS011;38298;50.346;3.526;2023-06-14T19:04:42;1.45;;;1.00;;
52368;SDS011;38298;50.346;3.526;2023-06-14T19:07:08;3.35;;;1.30;;
52368;SDS011;38298;50.346;3.526;2023-06-14T19:09:34;8.02;;;1.42;;
52368;SDS011;38298;50.346;3.526;2023-06-14T19:12:00;6.32;;;1.27;;
52368;SDS011;38298;50.346;3.526;2023-06-14T19:14:26;3.92;;;1.30;;
52368;SDS011;38298;50.346;3.526;2023-06-14T19:16:52;1.92;;;1.23;;
52368;SDS011;38298;50.346;3.526;2023-06-14T19:19:18;2.50;;;1.23;;
52368;SDS011;38298;50.346;3.526;2023-06-14T19:21:45;3.40;;;1.50;;
52368;SDS011;38298;50.346;3.526;2023-06-14T19:24:11;10.43;;;1.92;;
52368;SDS011;38298;50.346;3.526;2023-06-14T19:26:40;1.20;;;1.10;;
52368;SDS011;38298;50.346;3.526;2023-06-14T19:29:07;5.72;;;1.45;;
52368;SDS011;38298;50.346;3.526;2023-06-14T19:31:33;3.50;;;1.00;;
52368;SDS011;38298;50.346;3.526;2023-06-14T19:33:59;2.28;;;1.30;;
52368;SDS011;38298;50.346;3.526;2023-06-14T19:36:25;6.60;;;1.40;;
52368;SDS011;38298;50.346;3.526;2023-06-14T19:38:51;4.28;;;1.35;;
52368;SDS011;38298;50.346;3.526;2023-06-14T19:41:17;4.13;;;1.20;;
52368;SDS011;38298;50.346;3.526;2023-06-14T19:43:46;2.05;;;1.50;;
52368;SDS011;38298;50.346;3.526;2023-06-14T19:46:12;1.60;;;1.27;;
52368;SDS011;38298;50.346;3.526;2023-06-14T19:48:41;4.53;;;1.20;;
52368;SDS011;38298;50.346;3.526;2023-06-14T19:51:11;1.48;;;1.30;;
52368;SDS011;38298;50.346;3.526;2023-06-14T19:53:38;4.03;;;1.40;;
52368;SDS011;38298;50.346;3.526;2023-06-14T19:56:04;2.67;;;1.35;;
52368;SDS011;38298;50.346;3.526;2023-06-14T19:58:31;3.20;;;1.30;;
52368;SDS011;38298;50.346;3.526;2023-06-14T20:00:57;2.88;;;1.08;;
52368;SDS011;38298;50.346;3.526;2023-06-14T20:03:23;3.35;;;1.40;;
52368;SDS011;38298;50.346;3.526;2023-06-14T20:05:49;1.55;;;1.40;;
52368;SDS011;38298;50.346;3.526;2023-06-14T20:08:18;3.50;;;1.30;;
52368;SDS011;38298;50.346;3.526;2023-06-14T20:10:51;3.20;;;1.20;;
52368;SDS011;38298;50.346;3.526;2023-06-14T20:13:18;2.80;;;1.30;;
52368;SDS011;38298;50.346;3.526;2023-06-14T20:15:44;5.97;;;1.60;;
52368;SDS011;38298;50.346;3.526;2023-06-14T20:18:10;5.40;;;1.40;;
52368;SDS011;38298;50.346;3.526;2023-06-14T20:20:38;2.25;;;1.30;;
52368;SDS011;38298;50.346;3.526;2023-06-14T20:26:02;7.65;;;1.55;;
52368;SDS011;38298;50.346;3.526;2023-06-14T20:28:28;2.47;;;1.35;;
52368;SDS011;38298;50.346;3.526;2023-06-14T20:30:56;9.57;;;1.20;;
52368;SDS011;38298;50.346;3.526;2023-06-14T20:33:22;11.48;;;1.23;;
52368;SDS011;38298;50.346;3.526;2023-06-14T20:35:48;1.35;;;1.10;;
52368;SDS011;38298;50.346;3.526;2023-06-14T20:38:14;2.65;;;1.58;;
52368;SDS011;38298;50.346;3.526;2023-06-14T20:40:40;4.07;;;1.55;;
52368;SDS011;38298;50.346;3.526;2023-06-14T20:43:06;4.22;;;1.67;;
52368;SDS011;38298;50.346;3.526;2023-06-14T20:45:36;4.50;;;1.42;;
52368;SDS011;38298;50.346;3.526;2023-06-14T20:48:03;1.75;;;1.30;;
52368;SDS011;38298;50.346;3.526;2023-06-14T20:50:29;1.50;;;1.10;;
52368;SDS011;38298;50.346;3.526;2023-06-14T20:52:55;3.72;;;1.35;;
52368;SDS011;38298;50.346;3.526;2023-06-14T20:55:21;1.88;;;1.40;;
52368;SDS011;38298;50.346;3.526;2023-06-14T20:57:47;5.20;;;1.30;;
52368;SDS011;38298;50.346;3.526;2023-06-14T21:00:13;5.38;;;1.40;;
52368;SDS011;38298;50.346;3.526;2023-06-14T21:02:40;2.08;;;1.30;;
52368;SDS011;38298;50.346;3.526;2023-06-14T21:05:06;2.58;;;1.45;;
52368;SDS011;38298;50.346;3.526;2023-06-14T21:07:33;2.75;;;1.38;;
52368;SDS011;38298;50.346;3.526;2023-06-14T21:09:59;6.30;;;1.30;;
52368;SDS011;38298;50.346;3.526;2023-06-14T21:12:25;2.50;;;1.60;;
52368;SDS011;38298;50.346;3.526;2023-06-14T21:14:51;5.57;;;1.42;;
52368;SDS011;38298;50.346;3.526;2023-06-14T21:17:17;3.90;;;1.00;;
52368;SDS011;38298;50.346;3.526;2023-06-14T21:19:43;4.97;;;1.42;;
52368;SDS011;38298;50.346;3.526;2023-06-14T21:22:09;6.00;;;1.50;;
52368;SDS011;38298;50.346;3.526;2023-06-14T21:24:35;2.58;;;1.60;;
52368;SDS011;38298;50.346;3.526;2023-06-14T21:27:01;1.67;;;1.38;;
52368;SDS011;38298;50.346;3.526;2023-06-14T21:29:27;7.13;;;1.52;;
52368;SDS011;38298;50.346;3.526;2023-06-14T21:31:54;7.15;;;1.40;;
52368;SDS011;38298;50.346;3.526;2023-06-14T21:34:20;3.85;;;1.40;;
52368;SDS011;38298;50.346;3.526;2023-06-14T21:36:46;1.95;;;1.40;;
52368;SDS011;38298;50.346;3.526;2023-06-14T21:39:13;4.15;;;1.42;;
52368;SDS011;38298;50.346;3.526;2023-06-14T21:41:39;3.78;;;1.40;;
52368;SDS011;38298;50.346;3.526;2023-06-14T21:44:05;5.13;;;1.50;;
52368;SDS011;38298;50.346;3.526;2023-06-14T21:46:31;2.22;;;1.35;;
52368;SDS011;38298;50.346;3.526;2023-06-14T21:48:57;2.83;;;1.63;;
52368;SDS011;38298;50.346;3.526;2023-06-14T21:51:23;2.88;;;1.48;;
52368;SDS011;38298;50.346;3.526;2023-06-14T21:53:49;2.85;;;1.60;;
52368;SDS011;38298;50.346;3.526;2023-06-14T21:56:15;7.30;;;1.15;;
52368;SDS011;38298;50.346;3.526;2023-06-14T21:58:43;4.82;;;1.70;;
52368;SDS011;38298;50.346;3.526;2023-06-14T22:01:09;3.80;;;2.15;;
52368;SDS011;38298;50.346;3.526;2023-06-14T22:03:35;1.48;;;1.30;;
52368;SDS011;38298;50.346;3.526;2023-06-14T22:06:01;5.45;;;1.35;;
52368;SDS011;38298;50.346;3.526;2023-06-14T22:08:28;5.63;;;1.55;;
52368;SDS011;38298;50.346;3.526;2023-06-14T22:10:56;4.35;;;1.60;;
52368;SDS011;38298;50.346;3.526;2023-06-14T22:13:22;2.58;;;1.60;;
52368;SDS011;38298;50.346;3.526;2023-06-14T22:15:48;3.35;;;1.67;;
52368;SDS011;38298;50.346;3.526;2023-06-14T22:18:15;2.67;;;1.40;;
52368;SDS011;38298;50.346;3.526;2023-06-14T22:20:41;4.85;;;1.70;;
52368;SDS011;38298;50.346;3.526;2023-06-14T22:23:09;4.78;;;1.83;;
52368;SDS011;38298;50.346;3.526;2023-06-14T22:25:35;4.70;;;1.42;;
52368;SDS011;38298;50.346;3.526;2023-06-14T22:28:01;7.63;;;1.45;;
52368;SDS011;38298;50.346;3.526;2023-06-14T22:30:29;2.20;;;1.63;;
52368;SDS011;38298;50.346;3.526;2023-06-14T22:32:57;6.95;;;1.95;;
52368;SDS011;38298;50.346;3.526;2023-06-14T22:35:23;2.58;;;1.50;;
52368;SDS011;38298;50.346;3.526;2023-06-14T22:37:49;4.45;;;1.70;;
52368;SDS011;38298;50.346;3.526;2023-06-14T22:40:15;3.08;;;1.85;;
52368;SDS011;38298;50.346;3.526;2023-06-14T22:42:45;3.95;;;1.60;;
52368;SDS011;38298;50.346;3.526;2023-06-14T22:45:13;5.03;;;1.70;;
52368;SDS011;38298;50.346;3.526;2023-06-14T22:47:47;2.72;;;1.70;;
52368;SDS011;38298;50.346;3.526;2023-06-14T22:50:14;6.22;;;1.73;;
52368;SDS011;38298;50.346;3.526;2023-06-14T22:52:40;4.90;;;1.67;;
52368;SDS011;38298;50.346;3.526;2023-06-14T22:55:06;5.90;;;2.10;;
52368;SDS011;38298;50.346;3.526;2023-06-14T22:57:33;7.07;;;2.08;;
52368;SDS011;38298;50.346;3.526;2023-06-14T22:59:59;2.28;;;1.35;;
52368;SDS011;38298;50.346;3.526;2023-06-14T23:02:31;2.47;;;1.60;;
52368;SDS011;38298;50.346;3.526;2023-06-14T23:04:57;7.03;;;1.70;;
52368;SDS011;38298;50.346;3.526;2023-06-14T23:07:25;7.05;;;1.88;;
52368;SDS011;38298;50.346;3.526;2023-06-14T23:09:51;3.90;;;1.60;;
52368;SDS011;38298;50.346;3.526;2023-06-14T23:12:21;3.72;;;1.63;;
52368;SDS011;38298;50.346;3.526;2023-06-14T23:14:47;10.40;;;1.80;;
52368;SDS011;38298;50.346;3.526;2023-06-14T23:17:13;3.35;;;1.75;;
52368;SDS011;38298;50.346;3.526;2023-06-14T23:19:39;8.55;;;1.40;;
52368;SDS011;38298;50.346;3.526;2023-06-14T23:22:05;6.47;;;2.15;;
52368;SDS011;38298;50.346;3.526;2023-06-14T23:24:32;4.63;;;1.52;;
52368;SDS011;38298;50.346;3.526;2023-06-14T23:26:59;2.80;;;1.20;;
52368;SDS011;38298;50.346;3.526;2023-06-14T23:29:29;4.32;;;1.52;;
52368;SDS011;38298;50.346;3.526;2023-06-14T23:32:02;3.70;;;1.58;;
52368;SDS011;38298;50.346;3.526;2023-06-14T23:34:29;2.22;;;1.20;;
52368;SDS011;38298;50.346;3.526;2023-06-14T23:36:58;3.28;;;1.33;;
52368;SDS011;38298;50.346;3.526;2023-06-14T23:39:26;3.08;;;1.20;;
52368;SDS011;38298;50.346;3.526;2023-06-14T23:41:52;2.85;;;1.30;;
52368;SDS011;38298;50.346;3.526;2023-06-14T23:44:19;2.17;;;1.48;;
52368;SDS011;38298;50.346;3.526;2023-06-14T23:46:49;5.45;;;1.40;;
52368;SDS011;38298;50.346;3.526;2023-06-14T23:49:15;3.22;;;1.38;;
52368;SDS011;38298;50.346;3.526;2023-06-14T23:51:41;1.60;;;1.30;;
52368;SDS011;38298;50.346;3.526;2023-06-14T23:54:08;2.78;;;1.30;;
52368;SDS011;38298;50.346;3.526;2023-06-14T23:56:37;2.47;;;1.40;;
52368;SDS011;38298;50.346;3.526;2023-06-14T23:59:04;4.05;;;1.33;;
